createdAt,value
2023-01-29T00:06:25.297Z,9.00
2023-01-29T00:26:25.183Z,7.80
2023-01-29T00:46:24.804Z,6.00
2023-01-29T01:06:24.477Z,6.30
2023-01-29T01:26:24.196Z,7.30
2023-01-29T01:46:23.937Z,4.90
2023-01-29T02:06:23.646Z,8.10
2023-01-29T02:26:23.372Z,8.90
2023-01-29T02:46:23.114Z,10.30
2023-01-29T03:06:22.853Z,5.50
2023-01-29T03:26:22.576Z,9.60
2023-01-29T03:46:22.279Z,11.70
2023-01-29T04:06:22.004Z,11.70
2023-01-29T04:26:21.790Z,14.40
2023-01-29T04:46:21.472Z,12.10
2023-01-29T05:06:21.244Z,10.70
2023-01-29T05:26:20.924Z,12.30
2023-01-29T05:46:20.706Z,9.70
2023-01-29T06:06:20.414Z,12.30
2023-01-29T06:26:20.086Z,17.30
2023-01-29T06:46:19.833Z,18.90
2023-01-29T07:06:19.554Z,18.80
2023-01-29T07:26:19.273Z,21.50
2023-01-29T07:46:19.007Z,14.90
2023-01-29T08:06:18.746Z,16.20
2023-01-29T08:26:18.479Z,14.00
2023-01-29T08:46:18.288Z,20.50
2023-01-29T09:06:17.933Z,28.40
2023-01-29T09:26:17.772Z,20.50
2023-01-29T09:46:17.458Z,16.60
2023-01-29T10:06:17.136Z,20.60
2023-01-29T10:26:16.888Z,27.60
2023-01-29T10:46:16.601Z,15.20
2023-01-29T11:06:16.358Z,15.20
2023-01-29T11:26:16.071Z,12.70
2023-01-29T11:46:15.843Z,17.80
2023-01-29T12:06:15.509Z,23.90
2023-01-29T12:26:15.255Z,18.40
2023-01-29T12:46:14.959Z,18.70
2023-01-29T13:06:14.675Z,17.90
2023-01-29T13:26:14.515Z,19.80
2023-01-29T13:46:14.215Z,14.60
2023-01-29T14:06:13.881Z,20.80
2023-01-29T14:26:13.609Z,14.70
2023-01-29T14:46:13.402Z,17.80
2023-01-29T15:06:13.029Z,20.10
2023-01-29T15:26:12.815Z,25.10
2023-01-29T15:46:12.532Z,17.90
2023-01-29T16:06:12.236Z,17.90
2023-01-29T16:26:11.981Z,30.40
2023-01-29T16:46:11.733Z,35.50
2023-01-29T17:06:11.444Z,21.70
2023-01-29T17:26:11.207Z,18.50
2023-01-29T17:46:11.022Z,15.00
2023-01-29T18:06:10.638Z,29.90
2023-01-29T18:26:10.436Z,30.10
2023-01-29T18:46:10.250Z,32.50
2023-01-29T19:06:09.867Z,36.80
2023-01-29T19:26:09.641Z,48.10
2023-01-29T19:46:09.293Z,28.30
2023-01-29T20:06:09.040Z,22.60
2023-01-29T20:26:08.871Z,33.80
2023-01-29T20:46:08.851Z,37.70
2023-01-29T21:06:08.207Z,23.40
2023-01-29T21:26:08.024Z,33.10
2023-01-29T21:46:07.726Z,25.20
2023-01-29T22:06:08.417Z,31.00
2023-01-29T22:26:07.153Z,25.40
2023-01-29T22:46:06.971Z,32.50
2023-01-29T23:06:06.618Z,29.90
2023-01-29T23:26:06.357Z,26.90
2023-01-29T23:46:06.096Z,23.60
